Time;durP1;ratioP1;P1;durP2;ratioP2;P2;SDS_P1;SDS_P2;PMS_P1;PMS_P2;Temp;Humidity;BMP_temperature;BMP_pressure;BME280_temperature;BME280_humidity;BME280_pressure;Samples;Min_cycle;Max_cycle;Signal;HPM_P1;HPM_P2
2021/09/07 00:01:01;;;;;;;27.75;13.32;;;;;;;;;;5046764;28;20040;-59
2021/09/07 00:03:27;;;;;;;26.85;13.63;;;;;;;;;;5044628;28;20547;-59
2021/09/07 00:05:52;;;;;;;26.30;13.25;;;;;;;;;;5045494;28;20025;-59
2021/09/07 00:08:17;;;;;;;25.60;13.98;;;;;;;;;;5045637;28;20028;-59
2021/09/07 00:10:43;;;;;;;24.92;12.32;;;;;;;;;;5051088;28;20025;-59
2021/09/07 00:13:08;;;;;;;25.20;13.98;;;;;;;;;;5044736;28;20041;-59
2021/09/07 00:15:34;;;;;;;25.35;13.70;;;;;;;;;;5047478;28;20052;-59
2021/09/07 00:17:59;;;;;;;25.48;13.73;;;;;;;;;;5059736;28;20039;-59
2021/09/07 00:20:24;;;;;;;25.02;12.50;;;;;;;;;;5047408;28;20040;-59
2021/09/07 00:22:50;;;;;;;24.23;12.93;;;;;;;;;;5047089;28;20032;-59
2021/09/07 00:25:16;;;;;;;28.85;14.05;;;;;;;;;;5046142;28;20029;-59
2021/09/07 00:27:42;;;;;;;22.67;12.73;;;;;;;;;;5061131;28;20044;-59
2021/09/07 00:30:08;;;;;;;26.38;13.60;;;;;;;;;;5045514;28;20114;-59
2021/09/07 00:32:33;;;;;;;27.10;13.82;;;;;;;;;;5047940;28;20212;-59
2021/09/07 00:34:58;;;;;;;27.80;14.38;;;;;;;;;;5044027;28;20159;-59
2021/09/07 00:37:24;;;;;;;25.95;14.13;;;;;;;;;;5046740;28;20032;-59
2021/09/07 00:39:49;;;;;;;25.75;14.50;;;;;;;;;;5044005;28;20036;-59
2021/09/07 00:42:15;;;;;;;26.65;14.75;;;;;;;;;;5049241;28;20052;-59
2021/09/07 00:44:41;;;;;;;28.23;15.15;;;;;;;;;;5067839;28;20024;-59
2021/09/07 00:47:06;;;;;;;30.02;15.20;;;;;;;;;;5050014;28;20438;-59
2021/09/07 00:49:33;;;;;;;28.27;14.32;;;;;;;;;;5046942;28;20029;-59
2021/09/07 00:51:59;;;;;;;28.25;14.88;;;;;;;;;;5051736;28;20025;-59
2021/09/07 00:54:27;;;;;;;29.30;14.60;;;;;;;;;;5050024;28;20899;-59
2021/09/07 00:56:54;;;;;;;30.80;15.43;;;;;;;;;;5050290;28;20033;-59
2021/09/07 00:59:21;;;;;;;32.47;14.52;;;;;;;;;;5048798;28;20403;-59
2021/09/07 01:01:48;;;;;;;25.35;13.88;;;;;;;;;;5047606;28;20021;-60
2021/09/07 01:04:13;;;;;;;30.10;15.00;;;;;;;;;;5048875;28;20032;-59
2021/09/07 01:06:39;;;;;;;31.05;15.35;;;;;;;;;;5050984;28;20024;-59
2021/09/07 01:09:06;;;;;;;29.98;14.63;;;;;;;;;;5048649;28;20075;-59
2021/09/07 01:11:31;;;;;;;29.63;14.70;;;;;;;;;;5047313;28;20102;-59
2021/09/07 01:13:57;;;;;;;28.52;14.68;;;;;;;;;;5049118;28;20546;-59
2021/09/07 01:16:23;;;;;;;32.38;13.88;;;;;;;;;;5051793;28;20051;-59
2021/09/07 01:18:49;;;;;;;28.02;15.05;;;;;;;;;;5048502;28;20051;-59
2021/09/07 01:21:15;;;;;;;27.10;14.35;;;;;;;;;;5048768;28;20044;-61
2021/09/07 01:23:44;;;;;;;32.75;14.73;;;;;;;;;;5047238;28;20029;-59
2021/09/07 01:26:12;;;;;;;26.67;13.90;;;;;;;;;;5044556;28;20103;-59
2021/09/07 01:28:39;;;;;;;25.65;13.60;;;;;;;;;;5051927;28;20025;-59
2021/09/07 01:31:06;;;;;;;24.60;13.40;;;;;;;;;;5048214;28;20072;-59
2021/09/07 01:33:32;;;;;;;25.40;13.68;;;;;;;;;;5045996;28;20450;-59
2021/09/07 01:35:58;;;;;;;24.98;14.00;;;;;;;;;;5050118;28;20075;-59
2021/09/07 01:38:25;;;;;;;30.25;13.68;;;;;;;;;;5047172;28;20037;-59
2021/09/07 01:40:51;;;;;;;26.65;13.18;;;;;;;;;;5048792;28;20225;-59
2021/09/07 01:43:17;;;;;;;28.95;14.00;;;;;;;;;;5047089;28;20029;-59
2021/09/07 01:45:47;;;;;;;29.48;14.40;;;;;;;;;;5051397;28;20126;-60
2021/09/07 01:48:20;;;;;;;26.83;14.30;;;;;;;;;;5048328;28;20059;-59
2021/09/07 01:50:46;;;;;;;26.55;13.75;;;;;;;;;;5047427;28;20216;-59
2021/09/07 01:53:12;;;;;;;27.95;14.15;;;;;;;;;;5051812;28;20064;-59
2021/09/07 01:55:37;;;;;;;24.05;13.05;;;;;;;;;;5050335;28;20052;-59
2021/09/07 01:58:03;;;;;;;26.92;13.18;;;;;;;;;;5047672;28;20174;-59
2021/09/07 02:00:29;;;;;;;25.33;13.13;;;;;;;;;;5048398;28;20033;-59
2021/09/07 02:02:55;;;;;;;26.25;12.57;;;;;;;;;;5046524;28;20039;-59
2021/09/07 02:05:20;;;;;;;23.73;12.95;;;;;;;;;;5049371;28;20083;-59
2021/09/07 02:07:46;;;;;;;24.58;12.05;;;;;;;;;;5049076;28;20384;-59
2021/09/07 02:10:12;;;;;;;25.50;12.15;;;;;;;;;;5050848;28;20028;-59
2021/09/07 02:12:38;;;;;;;24.25;12.57;;;;;;;;;;5046646;28;20025;-59
2021/09/07 02:15:04;;;;;;;24.60;12.48;;;;;;;;;;5046372;28;20036;-59
2021/09/07 02:17:30;;;;;;;23.85;12.38;;;;;;;;;;5051376;28;20033;-59
2021/09/07 02:19:55;;;;;;;22.98;11.85;;;;;;;;;;5050160;28;20024;-59
2021/09/07 02:22:21;;;;;;;23.35;12.52;;;;;;;;;;5049897;28;20040;-59
2021/09/07 02:24:47;;;;;;;24.48;12.57;;;;;;;;;;5047373;28;20490;-59
2021/09/07 02:27:13;;;;;;;24.77;11.90;;;;;;;;;;5048852;28;20025;-59
2021/09/07 02:29:38;;;;;;;25.80;11.98;;;;;;;;;;5047153;28;20025;-59
2021/09/07 02:32:05;;;;;;;24.23;12.52;;;;;;;;;;5049768;28;20090;-59
2021/09/07 02:34:31;;;;;;;26.60;13.50;;;;;;;;;;5046522;28;20086;-59
2021/09/07 02:36:56;;;;;;;24.40;11.75;;;;;;;;;;5046353;28;20098;-59
2021/09/07 02:39:22;;;;;;;23.98;13.35;;;;;;;;;;5047756;28;20060;-59
2021/09/07 02:41:47;;;;;;;26.48;13.00;;;;;;;;;;5046002;28;20037;-59
2021/09/07 02:44:13;;;;;;;21.63;11.57;;;;;;;;;;5046117;28;20044;-59
2021/09/07 02:46:38;;;;;;;23.92;12.30;;;;;;;;;;5047292;28;20167;-59
2021/09/07 02:49:04;;;;;;;27.20;12.23;;;;;;;;;;5046577;28;20025;-59
2021/09/07 02:51:29;;;;;;;24.60;11.65;;;;;;;;;;5046937;28;20083;-59
2021/09/07 02:53:54;;;;;;;24.25;12.07;;;;;;;;;;5048190;28;20153;-59
2021/09/07 02:56:20;;;;;;;24.20;12.35;;;;;;;;;;5050186;28;20020;-59
2021/09/07 02:58:45;;;;;;;23.60;11.77;;;;;;;;;;5045535;28;20048;-59
2021/09/07 03:01:11;;;;;;;26.27;11.95;;;;;;;;;;5045732;28;20039;-59
2021/09/07 03:03:36;;;;;;;21.50;11.30;;;;;;;;;;5046734;28;20370;-59
2021/09/07 03:06:02;;;;;;;25.77;11.65;;;;;;;;;;5045453;28;20028;-59
2021/09/07 03:08:28;;;;;;;22.33;11.00;;;;;;;;;;5045917;28;20471;-59
2021/09/07 03:10:54;;;;;;;26.20;12.38;;;;;;;;;;5063835;28;20032;-59
2021/09/07 03:13:19;;;;;;;24.85;12.57;;;;;;;;;;5046559;28;20017;-59
2021/09/07 03:15:46;;;;;;;24.17;11.55;;;;;;;;;;5049219;28;20113;-59
2021/09/07 03:18:12;;;;;;;21.80;10.73;;;;;;;;;;5045429;28;20036;-59
2021/09/07 03:20:38;;;;;;;23.30;11.52;;;;;;;;;;5046482;28;20029;-59
2021/09/07 03:23:04;;;;;;;22.95;11.82;;;;;;;;;;5048531;28;20033;-58
2021/09/07 03:25:29;;;;;;;22.45;11.20;;;;;;;;;;5046317;28;20112;-59
2021/09/07 03:27:55;;;;;;;22.13;12.10;;;;;;;;;;5046213;28;20035;-59
2021/09/07 03:30:20;;;;;;;22.30;10.98;;;;;;;;;;5046515;28;20557;-59
2021/09/07 03:32:46;;;;;;;21.27;10.65;;;;;;;;;;5049580;28;20021;-59
2021/09/07 03:35:11;;;;;;;24.73;11.43;;;;;;;;;;5047263;28;20040;-59
2021/09/07 03:37:37;;;;;;;23.20;11.50;;;;;;;;;;5047126;28;20545;-59
2021/09/07 03:40:03;;;;;;;24.20;10.82;;;;;;;;;;5045422;28;20502;-58
2021/09/07 03:42:34;;;;;;;25.13;11.65;;;;;;;;;;5044463;28;20036;-58
2021/09/07 03:44:59;;;;;;;24.33;10.85;;;;;;;;;;5045902;28;20032;-58
2021/09/07 03:47:25;;;;;;;22.42;11.20;;;;;;;;;;5047507;28;20162;-58
2021/09/07 03:49:50;;;;;;;23.35;11.35;;;;;;;;;;5048997;28;20024;-58
2021/09/07 03:52:15;;;;;;;22.70;11.50;;;;;;;;;;5047826;28;20432;-58
2021/09/07 03:54:41;;;;;;;22.42;11.27;;;;;;;;;;5045392;28;20037;-58
2021/09/07 03:57:06;;;;;;;21.20;11.18;;;;;;;;;;5048456;28;20585;-58
2021/09/07 03:59:32;;;;;;;23.85;11.48;;;;;;;;;;5045992;28;20032;-58
2021/09/07 04:01:57;;;;;;;23.77;11.13;;;;;;;;;;5045096;28;20029;-58
2021/09/07 04:04:25;;;;;;;25.25;12.18;;;;;;;;;;5045600;28;20032;-58
2021/09/07 04:06:51;;;;;;;23.33;11.48;;;;;;;;;;5043279;28;20041;-58
2021/09/07 04:09:16;;;;;;;25.70;12.45;;;;;;;;;;5046584;28;20067;-58
2021/09/07 04:11:42;;;;;;;24.63;12.27;;;;;;;;;;5048462;28;20411;-58
2021/09/07 04:14:07;;;;;;;20.02;11.48;;;;;;;;;;5046860;28;20024;-58
2021/09/07 04:16:32;;;;;;;22.55;11.07;;;;;;;;;;5048229;28;20403;-58
2021/09/07 04:18:58;;;;;;;22.17;10.75;;;;;;;;;;5050957;28;20048;-57
2021/09/07 04:21:23;;;;;;;23.17;11.00;;;;;;;;;;5053280;28;20100;-58
2021/09/07 04:23:49;;;;;;;22.75;11.57;;;;;;;;;;5049327;28;20114;-58
2021/09/07 04:26:14;;;;;;;21.40;11.57;;;;;;;;;;5052054;28;20087;-58
2021/09/07 04:28:39;;;;;;;25.52;12.20;;;;;;;;;;5050715;28;20166;-57
2021/09/07 04:31:05;;;;;;;24.45;12.55;;;;;;;;;;5048836;28;20056;-57
2021/09/07 04:33:30;;;;;;;24.33;11.75;;;;;;;;;;5049631;28;20112;-58
2021/09/07 04:35:56;;;;;;;24.58;11.68;;;;;;;;;;5049876;28;20021;-58
2021/09/07 04:38:21;;;;;;;21.80;11.10;;;;;;;;;;5050742;28;20515;-58
2021/09/07 04:40:46;;;;;;;21.60;11.27;;;;;;;;;;5050072;28;20033;-58
2021/09/07 04:43:12;;;;;;;28.58;12.77;;;;;;;;;;5049689;28;20403;-58
2021/09/07 04:45:37;;;;;;;25.45;12.48;;;;;;;;;;5047450;28;20052;-57
2021/09/07 04:48:03;;;;;;;23.58;11.90;;;;;;;;;;5046756;28;20021;-58
2021/09/07 04:50:28;;;;;;;25.80;11.90;;;;;;;;;;5051616;28;20028;-58
2021/09/07 04:52:54;;;;;;;28.33;11.73;;;;;;;;;;5050545;28;20028;-58
2021/09/07 04:55:19;;;;;;;24.92;11.60;;;;;;;;;;5052536;28;20033;-58
2021/09/07 04:57:44;;;;;;;23.98;11.73;;;;;;;;;;5049564;28;20072;-58
2021/09/07 05:00:11;;;;;;;24.08;12.45;;;;;;;;;;5052151;28;20475;-58
2021/09/07 05:02:37;;;;;;;22.55;11.18;;;;;;;;;;5048674;28;20031;-58
2021/09/07 05:05:07;;;;;;;29.13;11.65;;;;;;;;;;5052787;28;20471;-58
2021/09/07 05:07:32;;;;;;;27.83;12.40;;;;;;;;;;5049059;28;20044;-58
2021/09/07 05:09:57;;;;;;;24.83;12.40;;;;;;;;;;5050483;28;20403;-58
2021/09/07 05:12:25;;;;;;;24.20;11.48;;;;;;;;;;5050444;28;20372;-58
2021/09/07 05:14:50;;;;;;;24.52;11.52;;;;;;;;;;5048888;28;20025;-59
2021/09/07 05:17:16;;;;;;;25.35;11.95;;;;;;;;;;5049256;28;20047;-57
2021/09/07 05:19:41;;;;;;;25.42;12.27;;;;;;;;;;5048252;28;20029;-57
2021/09/07 05:22:07;;;;;;;22.73;11.57;;;;;;;;;;5045495;28;20033;-57
2021/09/07 05:24:32;;;;;;;22.20;11.23;;;;;;;;;;5049186;28;20040;-57
2021/09/07 05:26:57;;;;;;;23.17;11.50;;;;;;;;;;5044736;28;20162;-59
2021/09/07 05:29:23;;;;;;;21.67;11.60;;;;;;;;;;5046832;28;20037;-58
2021/09/07 05:31:48;;;;;;;23.90;12.30;;;;;;;;;;5046893;28;20223;-59
2021/09/07 05:34:14;;;;;;;25.52;12.68;;;;;;;;;;5047366;28;20044;-58
2021/09/07 05:36:39;;;;;;;24.15;11.65;;;;;;;;;;5048225;28;20032;-59
2021/09/07 05:39:04;;;;;;;23.50;11.27;;;;;;;;;;5042944;28;20021;-59
2021/09/07 05:41:30;;;;;;;27.70;12.55;;;;;;;;;;5042689;28;20029;-59
2021/09/07 05:43:55;;;;;;;23.20;11.70;;;;;;;;;;5044181;28;20484;-59
2021/09/07 05:46:21;;;;;;;22.88;12.75;;;;;;;;;;5047399;28;20032;-58
2021/09/07 05:48:46;;;;;;;23.35;12.20;;;;;;;;;;5046119;28;20032;-59
2021/09/07 05:51:12;;;;;;;24.00;12.07;;;;;;;;;;5049659;28;20036;-58
2021/09/07 05:53:40;;;;;;;26.70;13.07;;;;;;;;;;5052631;28;20036;-58
2021/09/07 05:56:05;;;;;;;22.80;11.68;;;;;;;;;;5042663;28;20032;-58
2021/09/07 05:58:31;;;;;;;22.58;11.93;;;;;;;;;;5039582;28;20396;-57
2021/09/07 06:00:56;;;;;;;27.13;13.40;;;;;;;;;;5047034;28;20483;-57
2021/09/07 06:03:21;;;;;;;25.15;12.30;;;;;;;;;;5046548;28;20029;-58
2021/09/07 06:05:47;;;;;;;28.10;14.13;;;;;;;;;;5046096;28;20611;-57
2021/09/07 06:08:12;;;;;;;27.63;14.23;;;;;;;;;;5045708;28;20400;-57
2021/09/07 06:10:38;;;;;;;27.48;14.57;;;;;;;;;;5048789;28;20032;-57
2021/09/07 06:13:05;;;;;;;32.45;13.90;;;;;;;;;;5046842;28;20246;-57
2021/09/07 06:15:31;;;;;;;31.10;14.15;;;;;;;;;;5042645;28;20107;-58
2021/09/07 06:17:57;;;;;;;29.27;14.00;;;;;;;;;;5043009;28;20051;-57
2021/09/07 06:20:23;;;;;;;31.77;14.73;;;;;;;;;;5048032;28;20483;-57
2021/09/07 06:22:49;;;;;;;28.08;13.45;;;;;;;;;;5052731;28;20133;-59
2021/09/07 06:25:14;;;;;;;27.67;13.10;;;;;;;;;;5049177;28;20496;-57
2021/09/07 06:27:41;;;;;;;26.88;13.80;;;;;;;;;;5047788;28;20029;-58
2021/09/07 06:30:07;;;;;;;32.58;14.73;;;;;;;;;;5046062;28;20033;-59
2021/09/07 06:32:32;;;;;;;30.60;14.90;;;;;;;;;;5044909;28;20369;-59
2021/09/07 06:35:00;;;;;;;24.55;12.88;;;;;;;;;;5048024;28;20025;-59
2021/09/07 06:37:26;;;;;;;28.40;14.02;;;;;;;;;;5044878;28;20054;-59
2021/09/07 06:39:51;;;;;;;25.30;13.70;;;;;;;;;;5035387;28;20083;-60
2021/09/07 06:42:17;;;;;;;26.25;14.38;;;;;;;;;;5039083;28;20028;-58
2021/09/07 06:44:42;;;;;;;28.52;14.52;;;;;;;;;;5042872;28;20041;-57
2021/09/07 06:47:08;;;;;;;27.05;13.25;;;;;;;;;;5040349;28;20076;-58
2021/09/07 06:49:33;;;;;;;29.90;13.25;;;;;;;;;;5044312;28;20433;-58
2021/09/07 06:51:58;;;;;;;24.92;12.98;;;;;;;;;;5041058;28;20518;-58
2021/09/07 06:54:24;;;;;;;29.83;14.43;;;;;;;;;;5047993;28;20420;-58
2021/09/07 06:56:49;;;;;;;24.80;12.75;;;;;;;;;;5046460;28;20075;-58
2021/09/07 06:59:15;;;;;;;40.10;14.63;;;;;;;;;;5043290;28;20029;-58
2021/09/07 07:01:40;;;;;;;31.90;14.77;;;;;;;;;;5041426;28;20075;-58
2021/09/07 07:04:05;;;;;;;29.98;14.50;;;;;;;;;;5043875;28;20143;-58
2021/09/07 07:06:31;;;;;;;30.95;15.05;;;;;;;;;;5045537;28;20021;-58
2021/09/07 07:08:56;;;;;;;32.83;14.93;;;;;;;;;;5044572;28;20025;-58
2021/09/07 07:11:22;;;;;;;34.40;16.48;;;;;;;;;;5046784;28;20074;-58
2021/09/07 07:13:47;;;;;;;31.83;16.00;;;;;;;;;;5040755;28;20037;-58
2021/09/07 07:16:13;;;;;;;31.77;15.82;;;;;;;;;;5043554;28;20120;-59
2021/09/07 07:18:38;;;;;;;33.63;16.33;;;;;;;;;;5046207;28;20469;-60
2021/09/07 07:21:03;;;;;;;31.98;16.77;;;;;;;;;;5044552;28;20266;-60
2021/09/07 07:23:29;;;;;;;30.50;15.88;;;;;;;;;;5044316;28;20052;-61
2021/09/07 07:25:54;;;;;;;31.15;16.05;;;;;;;;;;5044382;28;20033;-60
2021/09/07 07:28:20;;;;;;;33.42;15.50;;;;;;;;;;5044190;28;20063;-59
2021/09/07 07:30:45;;;;;;;30.45;15.70;;;;;;;;;;5044922;28;20032;-60
2021/09/07 07:33:11;;;;;;;32.30;15.82;;;;;;;;;;5045715;28;20471;-59
2021/09/07 07:35:36;;;;;;;28.90;14.32;;;;;;;;;;5043447;28;20396;-59
2021/09/07 07:38:02;;;;;;;32.05;15.82;;;;;;;;;;5041877;28;20503;-58
2021/09/07 07:40:28;;;;;;;36.90;15.60;;;;;;;;;;5042652;28;20477;-58
2021/09/07 07:42:53;;;;;;;29.35;16.00;;;;;;;;;;5044188;28;20029;-58
2021/09/07 07:45:19;;;;;;;32.53;15.70;;;;;;;;;;5043870;28;20556;-58
2021/09/07 07:47:44;;;;;;;32.75;15.43;;;;;;;;;;5043085;28;20475;-58
2021/09/07 07:50:10;;;;;;;37.38;17.13;;;;;;;;;;5043788;28;20056;-58
2021/09/07 07:52:36;;;;;;;33.17;16.50;;;;;;;;;;5045991;28;20464;-59
2021/09/07 07:55:02;;;;;;;31.35;16.65;;;;;;;;;;5048113;28;20056;-59
2021/09/07 07:57:27;;;;;;;35.97;17.33;;;;;;;;;;5043462;28;20025;-58
2021/09/07 07:59:53;;;;;;;36.00;16.75;;;;;;;;;;5041548;28;20113;-58
2021/09/07 08:02:18;;;;;;;30.60;16.27;;;;;;;;;;5005637;28;1129808;-58
2021/09/07 08:04:43;;;;;;;34.35;16.23;;;;;;;;;;5045717;28;20028;-58
2021/09/07 08:07:09;;;;;;;32.33;16.10;;;;;;;;;;5045275;28;20017;-58
2021/09/07 08:09:34;;;;;;;30.25;16.30;;;;;;;;;;5045636;28;20036;-58
2021/09/07 08:12:00;;;;;;;30.52;15.32;;;;;;;;;;5046775;28;20039;-58
2021/09/07 08:14:26;;;;;;;31.90;15.38;;;;;;;;;;5063671;28;20427;-58
2021/09/07 08:16:52;;;;;;;30.30;15.48;;;;;;;;;;5044857;28;20035;-58
2021/09/07 08:19:17;;;;;;;30.40;15.43;;;;;;;;;;5044630;28;20243;-58
2021/09/07 08:21:43;;;;;;;34.33;16.63;;;;;;;;;;5059952;28;20066;-59
2021/09/07 08:24:09;;;;;;;30.15;15.80;;;;;;;;;;5044051;28;20032;-59
2021/09/07 08:26:34;;;;;;;31.05;17.08;;;;;;;;;;5062131;28;20191;-59
2021/09/07 08:29:00;;;;;;;32.67;16.50;;;;;;;;;;5044833;28;20036;-58
2021/09/07 08:31:25;;;;;;;32.65;16.48;;;;;;;;;;5042184;28;20406;-58
2021/09/07 08:33:51;;;;;;;29.15;15.63;;;;;;;;;;5044611;28;20033;-58
2021/09/07 08:36:16;;;;;;;35.78;16.55;;;;;;;;;;5044411;28;20056;-58
2021/09/07 08:38:42;;;;;;;28.65;15.38;;;;;;;;;;5044717;28;20109;-58
2021/09/07 08:41:07;;;;;;;26.45;12.57;;;;;;;;;;5061057;28;20029;-57
2021/09/07 08:43:33;;;;;;;28.55;11.98;;;;;;;;;;5045347;28;20476;-56
2021/09/07 08:45:59;;;;;;;27.58;12.65;;;;;;;;;;5047239;28;20886;-56
2021/09/07 08:48:26;;;;;;;27.13;13.82;;;;;;;;;;5042942;28;20033;-57
2021/09/07 08:50:54;;;;;;;30.20;15.95;;;;;;;;;;5046330;28;20198;-58
2021/09/07 08:53:20;;;;;;;29.17;15.65;;;;;;;;;;5039609;28;20033;-58
2021/09/07 08:55:45;;;;;;;29.50;15.40;;;;;;;;;;5045064;28;20117;-58
2021/09/07 08:58:11;;;;;;;33.17;16.48;;;;;;;;;;5043827;28;20036;-58
2021/09/07 09:00:36;;;;;;;28.58;17.05;;;;;;;;;;5042837;28;20032;-58
2021/09/07 09:03:11;;;;;;;32.25;15.85;;;;;;;;;;5044656;28;20033;-58
2021/09/07 09:05:40;;;;;;;29.73;15.85;;;;;;;;;;5045842;28;20065;-59
2021/09/07 09:08:11;;;;;;;33.33;16.20;;;;;;;;;;5048401;28;20085;-58
2021/09/07 09:10:36;;;;;;;30.77;15.75;;;;;;;;;;5049678;28;20029;-58
2021/09/07 09:13:11;;;;;;;38.92;15.95;;;;;;;;;;5051029;28;20082;-58
2021/09/07 09:15:38;;;;;;;28.55;16.30;;;;;;;;;;5047828;28;20446;-58
2021/09/07 09:18:05;;;;;;;32.13;16.33;;;;;;;;;;5045876;28;20017;-58
2021/09/07 09:20:30;;;;;;;30.70;15.20;;;;;;;;;;5048232;28;20025;-58
2021/09/07 09:22:58;;;;;;;26.27;15.60;;;;;;;;;;5049396;28;20032;-58
2021/09/07 09:25:23;;;;;;;27.50;15.50;;;;;;;;;;5033943;28;20492;-58
2021/09/07 09:27:55;;;;;;;28.58;14.90;;;;;;;;;;5047336;28;20035;-58
2021/09/07 09:30:48;;;;;;;30.20;15.65;;;;;;;;;;5047189;28;20029;-58
2021/09/07 09:33:16;;;;;;;32.92;15.70;;;;;;;;;;5041748;28;20032;-58
2021/09/07 09:35:50;;;;;;;24.85;14.63;;;;;;;;;;5049544;28;20025;-58
2021/09/07 09:38:18;;;;;;;27.23;14.70;;;;;;;;;;5046728;28;20460;-58
2021/09/07 09:40:44;;;;;;;27.08;14.85;;;;;;;;;;5048217;28;20822;-58
2021/09/07 09:43:32;;;;;;;25.38;14.07;;;;;;;;;;5049790;28;20385;-59
2021/09/07 09:46:14;;;;;;;27.08;14.75;;;;;;;;;;5049174;28;20132;-58
2021/09/07 09:48:40;;;;;;;25.85;14.35;;;;;;;;;;5048356;28;20503;-58
2021/09/07 09:51:06;;;;;;;29.50;14.40;;;;;;;;;;5047456;28;20043;-58
2021/09/07 09:53:33;;;;;;;27.40;14.63;;;;;;;;;;5049235;28;20047;-58
2021/09/07 09:56:00;;;;;;;27.60;15.30;;;;;;;;;;5048250;28;20040;-58
2021/09/07 09:58:26;;;;;;;23.60;14.15;;;;;;;;;;5046744;28;20442;-59
2021/09/07 10:00:52;;;;;;;27.15;13.40;;;;;;;;;;5046012;28;20017;-58
2021/09/07 10:03:18;;;;;;;26.17;15.52;;;;;;;;;;5048819;28;20436;-59
2021/09/07 10:05:45;;;;;;;27.23;15.25;;;;;;;;;;5045867;28;20035;-59
2021/09/07 10:08:14;;;;;;;25.98;14.85;;;;;;;;;;5046744;28;20021;-59
2021/09/07 10:10:44;;;;;;;26.20;15.10;;;;;;;;;;5046547;28;20451;-60
2021/09/07 10:13:16;;;;;;;27.45;15.73;;;;;;;;;;5044408;28;20078;-59
2021/09/07 10:15:48;;;;;;;25.25;14.80;;;;;;;;;;5046782;28;20032;-60
2021/09/07 10:26:18;;;;;;;32.17;15.30;;;;;;;;;;5046534;28;20032;-60
2021/09/07 10:28:45;;;;;;;27.67;15.85;;;;;;;;;;5046226;28;20040;-60
2021/09/07 10:31:18;;;;;;;31.23;15.38;;;;;;;;;;5046684;28;20029;-61
2021/09/07 10:33:55;;;;;;;30.83;15.57;;;;;;;;;;5046221;28;20040;-60
2021/09/07 10:36:24;;;;;;;27.50;14.90;;;;;;;;;;5048458;28;20032;-60
2021/09/07 10:38:56;;;;;;;26.23;15.43;;;;;;;;;;5046236;28;20050;-61
2021/09/07 10:41:33;;;;;;;25.70;14.65;;;;;;;;;;5047395;28;20400;-60
2021/09/07 10:43:59;;;;;;;26.73;15.05;;;;;;;;;;5047144;28;20078;-60
2021/09/07 10:46:40;;;;;;;24.63;14.27;;;;;;;;;;5048179;28;20419;-60
2021/09/07 10:49:32;;;;;;;26.25;15.48;;;;;;;;;;5049573;28;20400;-58
2021/09/07 10:52:09;;;;;;;26.08;14.50;;;;;;;;;;5047397;28;20021;-60
2021/09/07 10:54:53;;;;;;;24.90;14.50;;;;;;;;;;5045850;28;20032;-59
2021/09/07 10:57:34;;;;;;;25.73;14.25;;;;;;;;;;5044667;28;20029;-58
2021/09/07 11:00:02;;;;;;;24.15;14.45;;;;;;;;;;5040232;28;20063;-59
2021/09/07 11:02:36;;;;;;;27.07;14.40;;;;;;;;;;5045179;28;20139;-59
2021/09/07 11:05:10;;;;;;;24.58;14.75;;;;;;;;;;5043589;28;20029;-59
2021/09/07 11:07:44;;;;;;;24.48;14.32;;;;;;;;;;5045005;28;20033;-58
2021/09/07 11:10:16;;;;;;;26.20;13.85;;;;;;;;;;5044460;28;20056;-58
2021/09/07 11:13:04;;;;;;;24.70;15.15;;;;;;;;;;5042273;28;20484;-58
2021/09/07 11:15:38;;;;;;;26.10;14.65;;;;;;;;;;5043132;28;20041;-58
2021/09/07 11:18:09;;;;;;;25.08;13.93;;;;;;;;;;5047233;28;20048;-59
2021/09/07 11:20:46;;;;;;;21.92;14.27;;;;;;;;;;5039135;28;20029;-58
2021/09/07 11:23:33;;;;;;;21.92;11.65;;;;;;;;;;5042922;28;20043;-58
2021/09/07 11:26:27;;;;;;;17.35;11.48;;;;;;;;;;5043671;28;20032;-59
2021/09/07 11:28:52;;;;;;;22.23;13.30;;;;;;;;;;5042967;28;20116;-59
2021/09/07 11:31:17;;;;;;;23.75;12.75;;;;;;;;;;5044217;28;20532;-59
2021/09/07 11:33:44;;;;;;;19.23;11.80;;;;;;;;;;5047297;28;20304;-59
2021/09/07 11:36:11;;;;;;;18.60;11.40;;;;;;;;;;5044429;28;20496;-58
2021/09/07 11:38:44;;;;;;;17.63;10.85;;;;;;;;;;5046799;28;20108;-58
2021/09/07 11:41:23;;;;;;;17.63;10.82;;;;;;;;;;5045303;28;20032;-58
2021/09/07 11:43:56;;;;;;;16.23;10.23;;;;;;;;;;5045577;28;20032;-58
2021/09/07 11:46:32;;;;;;;18.77;11.32;;;;;;;;;;5046885;28;20033;-58
2021/09/07 11:49:12;;;;;;;18.08;10.43;;;;;;;;;;5041606;28;20025;-59
2021/09/07 11:51:43;;;;;;;18.20;10.43;;;;;;;;;;5046537;28;20029;-58
2021/09/07 11:54:10;;;;;;;16.20;10.57;;;;;;;;;;5040410;28;20033;-59
2021/09/07 11:56:37;;;;;;;18.00;10.20;;;;;;;;;;5045466;28;20514;-59
2021/09/07 11:59:16;;;;;;;18.10;10.88;;;;;;;;;;5060146;28;20028;-59
2021/09/07 12:01:50;;;;;;;19.92;11.00;;;;;;;;;;5047284;28;20444;-59
2021/09/07 12:04:18;;;;;;;17.77;10.98;;;;;;;;;;5059171;28;20459;-59
2021/09/07 12:06:51;;;;;;;16.67;10.90;;;;;;;;;;5046968;28;20037;-59
2021/09/07 12:09:22;;;;;;;16.70;9.63;;;;;;;;;;5044734;28;20043;-59
2021/09/07 12:11:51;;;;;;;18.73;10.77;;;;;;;;;;5045231;28;20420;-61
2021/09/07 12:14:20;;;;;;;16.25;10.00;;;;;;;;;;5041541;28;20028;-60
2021/09/07 12:16:54;;;;;;;17.90;11.02;;;;;;;;;;5045138;28;20037;-61
2021/09/07 12:19:29;;;;;;;18.27;11.18;;;;;;;;;;5043021;28;20395;-61
2021/09/07 12:22:23;;;;;;;17.27;10.57;;;;;;;;;;5059835;28;20646;-61
2021/09/07 12:25:12;;;;;;;15.90;10.23;;;;;;;;;;5044671;28;20112;-60
2021/09/07 12:27:51;;;;;;;16.40;10.68;;;;;;;;;;5044885;28;20037;-61
2021/09/07 12:30:24;;;;;;;18.58;10.45;;;;;;;;;;5043102;28;20036;-60
2021/09/07 12:32:59;;;;;;;24.52;10.98;;;;;;;;;;5045649;28;20071;-61
2021/09/07 12:35:38;;;;;;;18.13;10.55;;;;;;;;;;5042393;28;20036;-61
2021/09/07 12:38:09;;;;;;;16.45;9.85;;;;;;;;;;5049543;28;20070;-59
2021/09/07 12:40:37;;;;;;;17.42;10.07;;;;;;;;;;5049525;28;20377;-57
2021/09/07 12:43:13;;;;;;;17.55;9.77;;;;;;;;;;5048540;28;20082;-59
2021/09/07 12:45:38;;;;;;;18.20;9.98;;;;;;;;;;5046485;28;20028;-58
2021/09/07 12:48:04;;;;;;;16.52;10.52;;;;;;;;;;5048741;28;20557;-60
2021/09/07 12:50:30;;;;;;;18.98;11.38;;;;;;;;;;5048184;28;20033;-59
2021/09/07 12:52:58;;;;;;;15.43;9.75;;;;;;;;;;5053382;28;20012;-59
2021/09/07 12:55:24;;;;;;;18.45;10.55;;;;;;;;;;5046277;28;20207;-60
2021/09/07 12:57:49;;;;;;;15.20;10.73;;;;;;;;;;5062172;28;20567;-59
2021/09/07 13:00:15;;;;;;;16.92;9.52;;;;;;;;;;5048765;28;20444;-58
2021/09/07 13:02:40;;;;;;;17.60;10.80;;;;;;;;;;5048264;28;20024;-58
2021/09/07 13:05:06;;;;;;;17.70;11.20;;;;;;;;;;5049937;28;20029;-59
2021/09/07 13:07:32;;;;;;;17.23;11.02;;;;;;;;;;5046221;28;20028;-58
2021/09/07 13:09:58;;;;;;;16.15;10.13;;;;;;;;;;5046959;28;20025;-59
2021/09/07 13:12:23;;;;;;;17.40;10.27;;;;;;;;;;5052714;28;20075;-58
2021/09/07 13:14:49;;;;;;;17.02;9.85;;;;;;;;;;5051063;28;20020;-59
2021/09/07 13:17:14;;;;;;;17.95;10.80;;;;;;;;;;5063344;28;20032;-59
2021/09/07 13:19:39;;;;;;;15.95;10.45;;;;;;;;;;5047125;28;20021;-58
2021/09/07 13:22:06;;;;;;;18.40;11.00;;;;;;;;;;5048053;28;20037;-58
2021/09/07 13:24:32;;;;;;;19.02;10.82;;;;;;;;;;5050531;28;20039;-58
2021/09/07 13:26:58;;;;;;;18.02;10.88;;;;;;;;;;5048991;28;20024;-58
2021/09/07 13:29:23;;;;;;;17.25;11.10;;;;;;;;;;5047878;28;20087;-58
2021/09/07 13:31:51;;;;;;;18.88;11.25;;;;;;;;;;5050038;28;20028;-59
2021/09/07 13:34:16;;;;;;;18.45;10.52;;;;;;;;;;5046465;28;20029;-59
2021/09/07 13:36:41;;;;;;;18.80;10.43;;;;;;;;;;5050573;28;20219;-59
2021/09/07 13:39:07;;;;;;;16.17;10.88;;;;;;;;;;5045409;28;20028;-59
2021/09/07 13:41:32;;;;;;;16.75;10.77;;;;;;;;;;5044845;28;20518;-59
2021/09/07 13:43:58;;;;;;;21.08;10.13;;;;;;;;;;5059925;28;20155;-61
2021/09/07 13:46:23;;;;;;;22.88;11.60;;;;;;;;;;5047907;28;20399;-61
2021/09/07 13:48:48;;;;;;;17.80;11.27;;;;;;;;;;5050469;28;20028;-61
2021/09/07 13:51:14;;;;;;;20.63;11.52;;;;;;;;;;5047615;28;20028;-61
2021/09/07 13:53:40;;;;;;;16.20;10.40;;;;;;;;;;5047308;28;20036;-61
2021/09/07 13:56:05;;;;;;;18.05;10.02;;;;;;;;;;5048425;28;21725;-61
2021/09/07 13:58:31;;;;;;;21.73;11.25;;;;;;;;;;5045067;28;20521;-61
2021/09/07 14:00:56;;;;;;;19.48;10.68;;;;;;;;;;5046214;28;20550;-62
2021/09/07 14:03:21;;;;;;;15.77;10.85;;;;;;;;;;5047084;28;20116;-61
2021/09/07 14:05:47;;;;;;;18.40;11.02;;;;;;;;;;5046300;28;20561;-61
2021/09/07 14:08:12;;;;;;;15.35;10.25;;;;;;;;;;5048955;28;20040;-61
2021/09/07 14:10:37;;;;;;;16.00;10.45;;;;;;;;;;5049060;28;20063;-61
2021/09/07 14:13:03;;;;;;;19.80;10.68;;;;;;;;;;5047129;28;20028;-61
2021/09/07 14:15:29;;;;;;;16.83;10.48;;;;;;;;;;5046757;28;20481;-61
2021/09/07 14:17:54;;;;;;;16.05;10.85;;;;;;;;;;5062135;28;20037;-60
2021/09/07 14:20:20;;;;;;;17.20;10.25;;;;;;;;;;5048575;28;20043;-61
2021/09/07 14:22:46;;;;;;;22.95;11.50;;;;;;;;;;5047307;28;20025;-61
2021/09/07 14:25:12;;;;;;;14.38;10.45;;;;;;;;;;5046917;28;20039;-61